sensor_id;sensor_type;location;lat;lon;timestamp;P1;durP1;ratioP1;P2;durP2;ratioP2
3149;SDS011;32503;47.748;8.960;2022-07-12T00:00:36;2.40;;;2.30;;
3149;SDS011;32503;47.748;8.960;2022-07-12T00:03:03;1.97;;;1.87;;
3149;SDS011;32503;47.748;8.960;2022-07-12T00:05:30;2.47;;;1.93;;
3149;SDS011;32503;47.748;8.960;2022-07-12T00:07:57;2.50;;;2.40;;
3149;SDS011;32503;47.748;8.960;2022-07-12T00:10:26;5.27;;;2.20;;
3149;SDS011;32503;47.748;8.960;2022-07-12T00:12:53;2.63;;;2.53;;
3149;SDS011;32503;47.748;8.960;2022-07-12T00:15:20;2.50;;;2.40;;
3149;SDS011;32503;47.748;8.960;2022-07-12T00:17:47;2.43;;;2.33;;
3149;SDS011;32503;47.748;8.960;2022-07-12T00:20:15;4.50;;;2.60;;
3149;SDS011;32503;47.748;8.960;2022-07-12T00:22:42;3.07;;;2.87;;
3149;SDS011;32503;47.748;8.960;2022-07-12T00:25:11;2.63;;;2.43;;
3149;SDS011;32503;47.748;8.960;2022-07-12T00:27:40;2.40;;;2.30;;
3149;SDS011;32503;47.748;8.960;2022-07-12T00:30:07;3.10;;;2.83;;
3149;SDS011;32503;47.748;8.960;2022-07-12T00:32:35;2.50;;;2.40;;
3149;SDS011;32503;47.748;8.960;2022-07-12T00:35:03;2.43;;;2.33;;
3149;SDS011;32503;47.748;8.960;2022-07-12T00:37:31;2.77;;;2.67;;
3149;SDS011;32503;47.748;8.960;2022-07-12T00:39:59;2.60;;;2.50;;
3149;SDS011;32503;47.748;8.960;2022-07-12T00:42:26;2.40;;;2.20;;
3149;SDS011;32503;47.748;8.960;2022-07-12T00:44:54;2.90;;;2.80;;
3149;SDS011;32503;47.748;8.960;2022-07-12T00:47:25;3.47;;;3.27;;
3149;SDS011;32503;47.748;8.960;2022-07-12T00:50:02;3.53;;;3.33;;
3149;SDS011;32503;47.748;8.960;2022-07-12T00:52:32;2.93;;;2.73;;
3149;SDS011;32503;47.748;8.960;2022-07-12T00:54:59;3.00;;;2.80;;
3149;SDS011;32503;47.748;8.960;2022-07-12T00:57:26;2.90;;;2.70;;
3149;SDS011;32503;47.748;8.960;2022-07-12T00:59:56;2.40;;;2.30;;
3149;SDS011;32503;47.748;8.960;2022-07-12T01:02:23;2.83;;;2.40;;
3149;SDS011;32503;47.748;8.960;2022-07-12T01:04:50;2.57;;;2.37;;
3149;SDS011;32503;47.748;8.960;2022-07-12T01:07:19;2.70;;;2.60;;
3149;SDS011;32503;47.748;8.960;2022-07-12T01:09:48;2.60;;;2.40;;
3149;SDS011;32503;47.748;8.960;2022-07-12T01:12:17;2.50;;;2.40;;
3149;SDS011;32503;47.748;8.960;2022-07-12T01:14:45;2.57;;;2.37;;
3149;SDS011;32503;47.748;8.960;2022-07-12T01:17:15;2.80;;;2.60;;
3149;SDS011;32503;47.748;8.960;2022-07-12T01:19:43;2.53;;;2.33;;
3149;SDS011;32503;47.748;8.960;2022-07-12T01:22:11;3.30;;;2.80;;
3149;SDS011;32503;47.748;8.960;2022-07-12T01:24:44;4.83;;;3.27;;
3149;SDS011;32503;47.748;8.960;2022-07-12T01:27:12;3.93;;;3.17;;
3149;SDS011;32503;47.748;8.960;2022-07-12T01:29:39;2.60;;;2.50;;
3149;SDS011;32503;47.748;8.960;2022-07-12T01:32:06;3.47;;;3.27;;
3149;SDS011;32503;47.748;8.960;2022-07-12T01:34:48;3.70;;;3.40;;
3149;SDS011;32503;47.748;8.960;2022-07-12T01:37:17;2.70;;;2.50;;
3149;SDS011;32503;47.748;8.960;2022-07-12T01:39:48;3.30;;;3.10;;
3149;SDS011;32503;47.748;8.960;2022-07-12T01:42:17;3.50;;;3.30;;
3149;SDS011;32503;47.748;8.960;2022-07-12T01:44:45;2.83;;;2.67;;
3149;SDS011;32503;47.748;8.960;2022-07-12T01:47:12;3.27;;;3.17;;
3149;SDS011;32503;47.748;8.960;2022-07-12T01:49:39;3.70;;;3.40;;
3149;SDS011;32503;47.748;8.960;2022-07-12T01:52:06;3.30;;;3.20;;
3149;SDS011;32503;47.748;8.960;2022-07-12T01:54:34;3.50;;;3.40;;
3149;SDS011;32503;47.748;8.960;2022-07-12T01:57:03;2.90;;;2.80;;
3149;SDS011;32503;47.748;8.960;2022-07-12T01:59:31;3.40;;;3.20;;
3149;SDS011;32503;47.748;8.960;2022-07-12T02:01:59;2.70;;;2.60;;
3149;SDS011;32503;47.748;8.960;2022-07-12T02:04:26;3.70;;;3.40;;
3149;SDS011;32503;47.748;8.960;2022-07-12T02:06:54;3.37;;;3.17;;
3149;SDS011;32503;47.748;8.960;2022-07-12T02:09:22;3.63;;;3.43;;
3149;SDS011;32503;47.748;8.960;2022-07-12T02:11:49;3.60;;;3.40;;
3149;SDS011;32503;47.748;8.960;2022-07-12T02:14:18;3.63;;;3.43;;
3149;SDS011;32503;47.748;8.960;2022-07-12T02:16:46;2.93;;;2.83;;
3149;SDS011;32503;47.748;8.960;2022-07-12T02:19:13;3.50;;;3.30;;
3149;SDS011;32503;47.748;8.960;2022-07-12T02:21:41;3.03;;;2.93;;
3149;SDS011;32503;47.748;8.960;2022-07-12T02:24:08;4.20;;;4.00;;
3149;SDS011;32503;47.748;8.960;2022-07-12T02:26:35;3.63;;;3.43;;
3149;SDS011;32503;47.748;8.960;2022-07-12T02:29:03;4.50;;;4.10;;
3149;SDS011;32503;47.748;8.960;2022-07-12T02:31:32;3.87;;;3.57;;
3149;SDS011;32503;47.748;8.960;2022-07-12T02:34:00;3.47;;;3.37;;
3149;SDS011;32503;47.748;8.960;2022-07-12T02:36:27;3.50;;;3.20;;
3149;SDS011;32503;47.748;8.960;2022-07-12T02:38:54;4.37;;;3.80;;
3149;SDS011;32503;47.748;8.960;2022-07-12T02:41:21;3.67;;;3.47;;
3149;SDS011;32503;47.748;8.960;2022-07-12T02:43:48;3.80;;;3.63;;
3149;SDS011;32503;47.748;8.960;2022-07-12T02:46:15;3.80;;;3.60;;
3149;SDS011;32503;47.748;8.960;2022-07-12T02:48:43;3.67;;;3.47;;
3149;SDS011;32503;47.748;8.960;2022-07-12T02:51:11;3.43;;;3.07;;
3149;SDS011;32503;47.748;8.960;2022-07-12T02:53:38;3.40;;;3.20;;
3149;SDS011;32503;47.748;8.960;2022-07-12T02:56:05;3.30;;;3.00;;
3149;SDS011;32503;47.748;8.960;2022-07-12T02:58:33;4.03;;;3.93;;
3149;SDS011;32503;47.748;8.960;2022-07-12T03:01:01;4.60;;;4.23;;
3149;SDS011;32503;47.748;8.960;2022-07-12T03:03:28;4.17;;;3.97;;
3149;SDS011;32503;47.748;8.960;2022-07-12T03:05:56;4.20;;;4.00;;
3149;SDS011;32503;47.748;8.960;2022-07-12T03:08:24;3.60;;;3.30;;
3149;SDS011;32503;47.748;8.960;2022-07-12T03:10:51;3.77;;;3.57;;
3149;SDS011;32503;47.748;8.960;2022-07-12T03:13:18;3.60;;;3.40;;
3149;SDS011;32503;47.748;8.960;2022-07-12T03:15:45;3.80;;;3.60;;
3149;SDS011;32503;47.748;8.960;2022-07-12T03:18:13;4.53;;;4.33;;
3149;SDS011;32503;47.748;8.960;2022-07-12T03:20:40;3.80;;;3.70;;
3149;SDS011;32503;47.748;8.960;2022-07-12T03:23:08;4.03;;;3.90;;
3149;SDS011;32503;47.748;8.960;2022-07-12T03:25:35;3.67;;;3.40;;
3149;SDS011;32503;47.748;8.960;2022-07-12T03:28:03;4.13;;;3.87;;
3149;SDS011;32503;47.748;8.960;2022-07-12T03:30:30;3.80;;;3.50;;
3149;SDS011;32503;47.748;8.960;2022-07-12T03:32:57;3.97;;;3.77;;
3149;SDS011;32503;47.748;8.960;2022-07-12T03:35:24;4.47;;;4.27;;
3149;SDS011;32503;47.748;8.960;2022-07-12T03:37:51;3.90;;;3.70;;
3149;SDS011;32503;47.748;8.960;2022-07-12T03:40:20;4.77;;;4.40;;
3149;SDS011;32503;47.748;8.960;2022-07-12T03:42:48;4.50;;;4.10;;
3149;SDS011;32503;47.748;8.960;2022-07-12T03:45:17;4.17;;;3.97;;
3149;SDS011;32503;47.748;8.960;2022-07-12T03:47:44;4.10;;;3.90;;
3149;SDS011;32503;47.748;8.960;2022-07-12T03:50:13;4.83;;;4.43;;
3149;SDS011;32503;47.748;8.960;2022-07-12T03:52:41;3.47;;;3.27;;
3149;SDS011;32503;47.748;8.960;2022-07-12T03:55:09;4.07;;;3.07;;
3149;SDS011;32503;47.748;8.960;2022-07-12T03:57:39;3.80;;;3.60;;
3149;SDS011;32503;47.748;8.960;2022-07-12T04:00:07;4.37;;;4.07;;
3149;SDS011;32503;47.748;8.960;2022-07-12T04:02:37;4.30;;;4.00;;
3149;SDS011;32503;47.748;8.960;2022-07-12T04:05:05;3.80;;;3.70;;
3149;SDS011;32503;47.748;8.960;2022-07-12T04:07:34;3.80;;;3.60;;
3149;SDS011;32503;47.748;8.960;2022-07-12T04:10:02;4.00;;;3.80;;
3149;SDS011;32503;47.748;8.960;2022-07-12T04:12:30;3.47;;;3.37;;
3149;SDS011;32503;47.748;8.960;2022-07-12T04:14:59;3.27;;;3.17;;
3149;SDS011;32503;47.748;8.960;2022-07-12T04:17:27;3.73;;;3.50;;
3149;SDS011;32503;47.748;8.960;2022-07-12T04:19:54;3.67;;;3.50;;
3149;SDS011;32503;47.748;8.960;2022-07-12T04:22:21;3.87;;;3.57;;
3149;SDS011;32503;47.748;8.960;2022-07-12T04:24:49;3.60;;;3.50;;
3149;SDS011;32503;47.748;8.960;2022-07-12T04:27:16;4.33;;;3.07;;
3149;SDS011;32503;47.748;8.960;2022-07-12T04:29:43;3.37;;;3.17;;
3149;SDS011;32503;47.748;8.960;2022-07-12T04:32:12;3.67;;;3.37;;
3149;SDS011;32503;47.748;8.960;2022-07-12T04:34:39;3.20;;;3.10;;
3149;SDS011;32503;47.748;8.960;2022-07-12T04:37:06;4.07;;;3.57;;
3149;SDS011;32503;47.748;8.960;2022-07-12T04:39:33;3.70;;;3.60;;
3149;SDS011;32503;47.748;8.960;2022-07-12T04:42:00;3.20;;;2.90;;
3149;SDS011;32503;47.748;8.960;2022-07-12T04:44:27;3.60;;;3.40;;
3149;SDS011;32503;47.748;8.960;2022-07-12T04:46:54;4.63;;;4.20;;
3149;SDS011;32503;47.748;8.960;2022-07-12T04:49:23;3.60;;;3.30;;
3149;SDS011;32503;47.748;8.960;2022-07-12T04:51:50;3.37;;;3.17;;
3149;SDS011;32503;47.748;8.960;2022-07-12T04:54:17;3.67;;;3.47;;
3149;SDS011;32503;47.748;8.960;2022-07-12T04:56:44;3.20;;;3.10;;
3149;SDS011;32503;47.748;8.960;2022-07-12T04:59:11;4.43;;;4.13;;
3149;SDS011;32503;47.748;8.960;2022-07-12T05:01:38;3.57;;;3.37;;
3149;SDS011;32503;47.748;8.960;2022-07-12T05:04:05;3.13;;;2.87;;
3149;SDS011;32503;47.748;8.960;2022-07-12T05:06:33;3.90;;;3.70;;
3149;SDS011;32503;47.748;8.960;2022-07-12T05:09:01;4.03;;;3.63;;
3149;SDS011;32503;47.748;8.960;2022-07-12T05:11:28;4.90;;;3.80;;
3149;SDS011;32503;47.748;8.960;2022-07-12T05:14:18;3.37;;;3.27;;
3149;SDS011;32503;47.748;8.960;2022-07-12T05:16:45;4.17;;;3.97;;
3149;SDS011;32503;47.748;8.960;2022-07-12T05:19:12;4.47;;;3.70;;
3149;SDS011;32503;47.748;8.960;2022-07-12T05:21:42;4.43;;;4.03;;
3149;SDS011;32503;47.748;8.960;2022-07-12T05:24:09;3.57;;;3.37;;
3149;SDS011;32503;47.748;8.960;2022-07-12T05:26:36;4.50;;;2.90;;
3149;SDS011;32503;47.748;8.960;2022-07-12T05:29:04;3.83;;;3.53;;
3149;SDS011;32503;47.748;8.960;2022-07-12T05:31:31;3.87;;;3.57;;
3149;SDS011;32503;47.748;8.960;2022-07-12T05:33:58;3.17;;;2.97;;
3149;SDS011;32503;47.748;8.960;2022-07-12T05:36:25;8.80;;;3.60;;
3149;SDS011;32503;47.748;8.960;2022-07-12T05:38:54;3.43;;;3.23;;
3149;SDS011;32503;47.748;8.960;2022-07-12T05:41:22;4.40;;;4.00;;
3149;SDS011;32503;47.748;8.960;2022-07-12T05:43:49;3.93;;;3.63;;
3149;SDS011;32503;47.748;8.960;2022-07-12T05:46:16;3.53;;;3.23;;
3149;SDS011;32503;47.748;8.960;2022-07-12T05:48:43;4.10;;;3.90;;
3149;SDS011;32503;47.748;8.960;2022-07-12T05:51:10;3.40;;;3.30;;
3149;SDS011;32503;47.748;8.960;2022-07-12T05:53:56;4.23;;;3.50;;
3149;SDS011;32503;47.748;8.960;2022-07-12T05:56:26;3.67;;;3.47;;
3149;SDS011;32503;47.748;8.960;2022-07-12T05:58:53;4.10;;;3.87;;
3149;SDS011;32503;47.748;8.960;2022-07-12T06:01:20;3.80;;;3.60;;
3149;SDS011;32503;47.748;8.960;2022-07-12T06:03:47;3.57;;;3.47;;
3149;SDS011;32503;47.748;8.960;2022-07-12T06:06:14;3.23;;;3.13;;
3149;SDS011;32503;47.748;8.960;2022-07-12T06:08:41;3.17;;;3.07;;
3149;SDS011;32503;47.748;8.960;2022-07-12T06:11:10;3.13;;;2.93;;
3149;SDS011;32503;47.748;8.960;2022-07-12T06:13:37;2.93;;;2.80;;
3149;SDS011;32503;47.748;8.960;2022-07-12T06:16:04;2.83;;;2.73;;
3149;SDS011;32503;47.748;8.960;2022-07-12T06:18:32;3.37;;;3.27;;
3149;SDS011;32503;47.748;8.960;2022-07-12T06:21:00;3.37;;;3.17;;
3149;SDS011;32503;47.748;8.960;2022-07-12T06:23:28;6.50;;;4.43;;
3149;SDS011;32503;47.748;8.960;2022-07-12T06:25:55;3.10;;;3.00;;
3149;SDS011;32503;47.748;8.960;2022-07-12T06:28:24;2.70;;;2.60;;
3149;SDS011;32503;47.748;8.960;2022-07-12T06:30:51;3.23;;;3.13;;
3149;SDS011;32503;47.748;8.960;2022-07-12T06:33:18;3.27;;;3.07;;
3149;SDS011;32503;47.748;8.960;2022-07-12T06:35:45;3.03;;;2.77;;
3149;SDS011;32503;47.748;8.960;2022-07-12T06:38:12;3.20;;;3.10;;
3149;SDS011;32503;47.748;8.960;2022-07-12T06:40:39;3.53;;;3.33;;
3149;SDS011;32503;47.748;8.960;2022-07-12T06:43:08;3.67;;;3.47;;
3149;SDS011;32503;47.748;8.960;2022-07-12T06:45:37;3.73;;;3.63;;
3149;SDS011;32503;47.748;8.960;2022-07-12T06:48:04;3.00;;;2.90;;
3149;SDS011;32503;47.748;8.960;2022-07-12T06:50:32;2.90;;;2.80;;
3149;SDS011;32503;47.748;8.960;2022-07-12T06:52:59;3.27;;;3.10;;
3149;SDS011;32503;47.748;8.960;2022-07-12T06:55:26;2.83;;;2.73;;
3149;SDS011;32503;47.748;8.960;2022-07-12T06:57:53;3.07;;;2.97;;
3149;SDS011;32503;47.748;8.960;2022-07-12T07:00:20;3.10;;;2.90;;
3149;SDS011;32503;47.748;8.960;2022-07-12T07:02:49;2.97;;;2.87;;
3149;SDS011;32503;47.748;8.960;2022-07-12T07:05:16;3.63;;;2.83;;
3149;SDS011;32503;47.748;8.960;2022-07-12T07:07:44;2.60;;;2.40;;
3149;SDS011;32503;47.748;8.960;2022-07-12T07:10:12;2.93;;;2.83;;
3149;SDS011;32503;47.748;8.960;2022-07-12T07:12:39;2.67;;;2.57;;
3149;SDS011;32503;47.748;8.960;2022-07-12T07:15:06;2.90;;;2.70;;
3149;SDS011;32503;47.748;8.960;2022-07-12T07:17:35;3.27;;;3.07;;
3149;SDS011;32503;47.748;8.960;2022-07-12T07:20:03;3.63;;;3.43;;
3149;SDS011;32503;47.748;8.960;2022-07-12T07:22:32;2.83;;;2.63;;
3149;SDS011;32503;47.748;8.960;2022-07-12T07:24:59;2.93;;;2.83;;
3149;SDS011;32503;47.748;8.960;2022-07-12T07:27:26;2.73;;;2.63;;
3149;SDS011;32503;47.748;8.960;2022-07-12T07:29:53;2.90;;;2.80;;
3149;SDS011;32503;47.748;8.960;2022-07-12T07:32:37;2.23;;;2.13;;
3149;SDS011;32503;47.748;8.960;2022-07-12T07:35:06;2.87;;;2.67;;
3149;SDS011;32503;47.748;8.960;2022-07-12T07:37:34;2.40;;;2.30;;
3149;SDS011;32503;47.748;8.960;2022-07-12T07:40:01;2.53;;;2.43;;
3149;SDS011;32503;47.748;8.960;2022-07-12T07:42:29;2.70;;;2.60;;
3149;SDS011;32503;47.748;8.960;2022-07-12T07:44:56;2.33;;;2.23;;
3149;SDS011;32503;47.748;8.960;2022-07-12T07:47:23;2.57;;;2.37;;
3149;SDS011;32503;47.748;8.960;2022-07-12T07:49:54;2.43;;;2.23;;
3149;SDS011;32503;47.748;8.960;2022-07-12T07:52:23;2.50;;;2.30;;
3149;SDS011;32503;47.748;8.960;2022-07-12T07:54:50;2.60;;;2.50;;
3149;SDS011;32503;47.748;8.960;2022-07-12T07:57:17;2.50;;;2.40;;
3149;SDS011;32503;47.748;8.960;2022-07-12T07:59:44;2.37;;;2.27;;
3149;SDS011;32503;47.748;8.960;2022-07-12T08:02:11;2.27;;;2.17;;
3149;SDS011;32503;47.748;8.960;2022-07-12T08:04:38;2.90;;;2.80;;
3149;SDS011;32503;47.748;8.960;2022-07-12T08:07:05;2.20;;;2.10;;
3149;SDS011;32503;47.748;8.960;2022-07-12T08:09:34;2.03;;;1.93;;
3149;SDS011;32503;47.748;8.960;2022-07-12T08:12:01;2.30;;;2.20;;
3149;SDS011;32503;47.748;8.960;2022-07-12T08:14:28;1.90;;;1.80;;
3149;SDS011;32503;47.748;8.960;2022-07-12T08:16:55;2.30;;;2.20;;
3149;SDS011;32503;47.748;8.960;2022-07-12T08:19:23;2.47;;;2.37;;
3149;SDS011;32503;47.748;8.960;2022-07-12T08:21:50;1.80;;;1.70;;
3149;SDS011;32503;47.748;8.960;2022-07-12T08:24:17;2.60;;;2.50;;
3149;SDS011;32503;47.748;8.960;2022-07-12T08:26:45;2.53;;;2.43;;
3149;SDS011;32503;47.748;8.960;2022-07-12T08:29:13;2.70;;;2.50;;
3149;SDS011;32503;47.748;8.960;2022-07-12T08:31:40;2.50;;;2.40;;
3149;SDS011;32503;47.748;8.960;2022-07-12T08:34:07;3.20;;;3.00;;
3149;SDS011;32503;47.748;8.960;2022-07-12T08:36:34;2.50;;;2.40;;
3149;SDS011;32503;47.748;8.960;2022-07-12T08:39:02;2.73;;;2.63;;
3149;SDS011;32503;47.748;8.960;2022-07-12T08:41:29;2.57;;;2.37;;
3149;SDS011;32503;47.748;8.960;2022-07-12T08:43:58;3.00;;;2.80;;
3149;SDS011;32503;47.748;8.960;2022-07-12T08:46:25;2.47;;;2.37;;
3149;SDS011;32503;47.748;8.960;2022-07-12T08:48:52;2.70;;;2.60;;
3149;SDS011;32503;47.748;8.960;2022-07-12T08:51:20;3.13;;;2.93;;
3149;SDS011;32503;47.748;8.960;2022-07-12T08:53:47;2.23;;;2.13;;
3149;SDS011;32503;47.748;8.960;2022-07-12T08:56:33;2.43;;;2.33;;
3149;SDS011;32503;47.748;8.960;2022-07-12T08:59:11;2.77;;;2.67;;
3149;SDS011;32503;47.748;8.960;2022-07-12T09:01:44;2.70;;;2.30;;
3149;SDS011;32503;47.748;8.960;2022-07-12T09:04:15;2.60;;;2.50;;
3149;SDS011;32503;47.748;8.960;2022-07-12T09:06:43;2.33;;;2.23;;
3149;SDS011;32503;47.748;8.960;2022-07-12T09:09:11;2.27;;;2.17;;
3149;SDS011;32503;47.748;8.960;2022-07-12T09:11:51;2.27;;;2.17;;
3149;SDS011;32503;47.748;8.960;2022-07-12T09:14:20;2.60;;;2.40;;
3149;SDS011;32503;47.748;8.960;2022-07-12T09:16:57;2.80;;;2.70;;
3149;SDS011;32503;47.748;8.960;2022-07-12T09:19:26;2.83;;;2.73;;
3149;SDS011;32503;47.748;8.960;2022-07-12T09:21:54;2.70;;;2.60;;
3149;SDS011;32503;47.748;8.960;2022-07-12T09:24:23;2.53;;;2.43;;
3149;SDS011;32503;47.748;8.960;2022-07-12T09:26:53;3.10;;;3.00;;
3149;SDS011;32503;47.748;8.960;2022-07-12T09:29:25;2.97;;;2.87;;
3149;SDS011;32503;47.748;8.960;2022-07-12T09:31:52;2.60;;;2.50;;
3149;SDS011;32503;47.748;8.960;2022-07-12T09:34:37;2.70;;;2.60;;
3149;SDS011;32503;47.748;8.960;2022-07-12T09:37:23;2.33;;;2.23;;
3149;SDS011;32503;47.748;8.960;2022-07-12T09:39:52;2.53;;;2.43;;
3149;SDS011;32503;47.748;8.960;2022-07-12T09:42:19;6.80;;;2.10;;
3149;SDS011;32503;47.748;8.960;2022-07-12T09:44:48;2.77;;;2.67;;
3149;SDS011;32503;47.748;8.960;2022-07-12T09:47:16;3.10;;;3.00;;
3149;SDS011;32503;47.748;8.960;2022-07-12T09:49:43;2.37;;;2.27;;
3149;SDS011;32503;47.748;8.960;2022-07-12T09:52:12;2.90;;;2.70;;
3149;SDS011;32503;47.748;8.960;2022-07-12T09:54:46;3.77;;;3.57;;
3149;SDS011;32503;47.748;8.960;2022-07-12T09:57:19;3.00;;;2.90;;
3149;SDS011;32503;47.748;8.960;2022-07-12T09:59:50;2.40;;;2.30;;
3149;SDS011;32503;47.748;8.960;2022-07-12T10:02:18;3.03;;;2.93;;
3149;SDS011;32503;47.748;8.960;2022-07-12T10:04:47;2.37;;;2.27;;
3149;SDS011;32503;47.748;8.960;2022-07-12T10:07:14;2.53;;;2.33;;
3149;SDS011;32503;47.748;8.960;2022-07-12T10:09:42;2.83;;;2.73;;
3149;SDS011;32503;47.748;8.960;2022-07-12T10:12:12;2.70;;;2.60;;
3149;SDS011;32503;47.748;8.960;2022-07-12T10:14:46;2.63;;;2.53;;
3149;SDS011;32503;47.748;8.960;2022-07-12T10:17:23;2.73;;;2.63;;
3149;SDS011;32503;47.748;8.960;2022-07-12T10:22:43;2.70;;;2.60;;
3149;SDS011;32503;47.748;8.960;2022-07-12T10:25:30;2.20;;;2.10;;
3149;SDS011;32503;47.748;8.960;2022-07-12T10:27:58;9.10;;;2.60;;
3149;SDS011;32503;47.748;8.960;2022-07-12T10:30:27;3.60;;;3.40;;
3149;SDS011;32503;47.748;8.960;2022-07-12T10:32:56;2.43;;;2.17;;
3149;SDS011;32503;47.748;8.960;2022-07-12T10:35:25;2.43;;;2.33;;
3149;SDS011;32503;47.748;8.960;2022-07-12T10:40:47;2.40;;;2.30;;
3149;SDS011;32503;47.748;8.960;2022-07-12T10:43:16;2.50;;;2.40;;
3149;SDS011;32503;47.748;8.960;2022-07-12T10:46:06;2.57;;;2.47;;
3149;SDS011;32503;47.748;8.960;2022-07-12T10:48:44;2.60;;;2.20;;
3149;SDS011;32503;47.748;8.960;2022-07-12T10:51:14;2.63;;;2.53;;
3149;SDS011;32503;47.748;8.960;2022-07-12T10:53:44;3.17;;;3.03;;
3149;SDS011;32503;47.748;8.960;2022-07-12T10:56:16;2.40;;;2.30;;
3149;SDS011;32503;47.748;8.960;2022-07-12T10:58:46;2.50;;;2.40;;
3149;SDS011;32503;47.748;8.960;2022-07-12T11:01:19;2.57;;;2.47;;
3149;SDS011;32503;47.748;8.960;2022-07-12T11:03:48;2.77;;;2.67;;
3149;SDS011;32503;47.748;8.960;2022-07-12T11:06:18;2.90;;;2.70;;
3149;SDS011;32503;47.748;8.960;2022-07-12T11:08:50;2.77;;;2.50;;
3149;SDS011;32503;47.748;8.960;2022-07-12T11:11:23;3.00;;;2.90;;
3149;SDS011;32503;47.748;8.960;2022-07-12T11:13:52;2.83;;;2.73;;
3149;SDS011;32503;47.748;8.960;2022-07-12T11:16:21;2.47;;;2.27;;
3149;SDS011;32503;47.748;8.960;2022-07-12T11:18:50;2.80;;;2.70;;
3149;SDS011;32503;47.748;8.960;2022-07-12T11:21:18;2.77;;;2.67;;
3149;SDS011;32503;47.748;8.960;2022-07-12T11:23:46;2.83;;;2.60;;
3149;SDS011;32503;47.748;8.960;2022-07-12T11:26:14;2.57;;;2.47;;
3149;SDS011;32503;47.748;8.960;2022-07-12T11:28:42;3.17;;;2.97;;
3149;SDS011;32503;47.748;8.960;2022-07-12T11:31:11;2.27;;;2.17;;
3149;SDS011;32503;47.748;8.960;2022-07-12T11:33:41;2.40;;;2.30;;
3149;SDS011;32503;47.748;8.960;2022-07-12T11:36:10;2.80;;;2.70;;
3149;SDS011;32503;47.748;8.960;2022-07-12T11:38:38;2.47;;;2.37;;
3149;SDS011;32503;47.748;8.960;2022-07-12T11:41:07;2.30;;;2.20;;
3149;SDS011;32503;47.748;8.960;2022-07-12T11:43:36;2.60;;;2.50;;
3149;SDS011;32503;47.748;8.960;2022-07-12T11:46:05;2.47;;;2.37;;
3149;SDS011;32503;47.748;8.960;2022-07-12T11:48:34;2.70;;;2.60;;
3149;SDS011;32503;47.748;8.960;2022-07-12T11:51:04;2.87;;;2.77;;
3149;SDS011;32503;47.748;8.960;2022-07-12T11:53:33;2.63;;;2.53;;
3149;SDS011;32503;47.748;8.960;2022-07-12T11:56:02;2.33;;;2.23;;
3149;SDS011;32503;47.748;8.960;2022-07-12T11:58:32;2.50;;;2.40;;
3149;SDS011;32503;47.748;8.960;2022-07-12T12:01:03;2.73;;;2.63;;
3149;SDS011;32503;47.748;8.960;2022-07-12T12:03:41;3.40;;;3.30;;
3149;SDS011;32503;47.748;8.960;2022-07-12T12:06:11;3.17;;;3.07;;
3149;SDS011;32503;47.748;8.960;2022-07-12T12:08:39;3.30;;;3.20;;
3149;SDS011;32503;47.748;8.960;2022-07-12T12:11:06;2.43;;;2.33;;
3149;SDS011;32503;47.748;8.960;2022-07-12T12:13:34;2.47;;;2.37;;
3149;SDS011;32503;47.748;8.960;2022-07-12T12:16:02;2.17;;;2.07;;
3149;SDS011;32503;47.748;8.960;2022-07-12T12:18:32;2.50;;;2.40;;
3149;SDS011;32503;47.748;8.960;2022-07-12T12:21:00;2.00;;;1.90;;
3149;SDS011;32503;47.748;8.960;2022-07-12T12:23:32;2.00;;;1.90;;
3149;SDS011;32503;47.748;8.960;2022-07-12T12:26:13;2.20;;;2.10;;
3149;SDS011;32503;47.748;8.960;2022-07-12T12:28:43;1.80;;;1.70;;
3149;SDS011;32503;47.748;8.960;2022-07-12T12:31:11;1.77;;;1.67;;
3149;SDS011;32503;47.748;8.960;2022-07-12T12:33:40;1.73;;;1.63;;
3149;SDS011;32503;47.748;8.960;2022-07-12T12:36:12;2.00;;;1.90;;
3149;SDS011;32503;47.748;8.960;2022-07-12T12:38:47;2.13;;;2.03;;
3149;SDS011;32503;47.748;8.960;2022-07-12T12:41:16;2.33;;;2.23;;
3149;SDS011;32503;47.748;8.960;2022-07-12T12:43:47;2.20;;;2.10;;
3149;SDS011;32503;47.748;8.960;2022-07-12T12:46:22;2.30;;;2.20;;
3149;SDS011;32503;47.748;8.960;2022-07-12T12:49:08;2.00;;;1.90;;
3149;SDS011;32503;47.748;8.960;2022-07-12T12:51:49;1.80;;;1.70;;
3149;SDS011;32503;47.748;8.960;2022-07-12T12:54:31;1.87;;;1.77;;
3149;SDS011;32503;47.748;8.960;2022-07-12T12:56:59;2.10;;;2.00;;
3149;SDS011;32503;47.748;8.960;2022-07-12T12:59:27;2.10;;;2.00;;
3149;SDS011;32503;47.748;8.960;2022-07-12T13:01:54;1.90;;;1.80;;
3149;SDS011;32503;47.748;8.960;2022-07-12T13:04:22;1.83;;;1.73;;
3149;SDS011;32503;47.748;8.960;2022-07-12T13:06:53;2.40;;;2.30;;
3149;SDS011;32503;47.748;8.960;2022-07-12T13:09:20;1.93;;;1.83;;
3149;SDS011;32503;47.748;8.960;2022-07-12T13:11:49;2.10;;;1.90;;
3149;SDS011;32503;47.748;8.960;2022-07-12T13:14:16;2.30;;;2.20;;
3149;SDS011;32503;47.748;8.960;2022-07-12T13:16:43;2.80;;;2.60;;
3149;SDS011;32503;47.748;8.960;2022-07-12T13:19:10;2.23;;;2.13;;
3149;SDS011;32503;47.748;8.960;2022-07-12T13:21:38;2.03;;;1.93;;
3149;SDS011;32503;47.748;8.960;2022-07-12T13:24:05;1.90;;;1.80;;
3149;SDS011;32503;47.748;8.960;2022-07-12T13:26:32;2.00;;;1.90;;
3149;SDS011;32503;47.748;8.960;2022-07-12T13:29:01;1.90;;;1.80;;
3149;SDS011;32503;47.748;8.960;2022-07-12T13:31:28;2.03;;;1.93;;
3149;SDS011;32503;47.748;8.960;2022-07-12T13:33:55;1.93;;;1.83;;
3149;SDS011;32503;47.748;8.960;2022-07-12T13:36:22;1.70;;;1.60;;
3149;SDS011;32503;47.748;8.960;2022-07-12T13:38:49;2.00;;;1.90;;
3149;SDS011;32503;47.748;8.960;2022-07-12T13:41:16;1.90;;;1.80;;
3149;SDS011;32503;47.748;8.960;2022-07-12T13:43:43;1.70;;;1.60;;
3149;SDS011;32503;47.748;8.960;2022-07-12T13:46:12;1.80;;;1.70;;
3149;SDS011;32503;47.748;8.960;2022-07-12T13:48:40;1.77;;;1.67;;
3149;SDS011;32503;47.748;8.960;2022-07-12T13:51:07;2.10;;;1.90;;
3149;SDS011;32503;47.748;8.960;2022-07-12T13:53:34;2.00;;;1.90;;
3149;SDS011;32503;47.748;8.960;2022-07-12T13:56:01;1.33;;;1.30;;
3149;SDS011;32503;47.748;8.960;2022-07-12T13:58:28;1.73;;;1.63;;
3149;SDS011;32503;47.748;8.960;2022-07-12T14:00:55;2.13;;;1.90;;
3149;SDS011;32503;47.748;8.960;2022-07-12T14:03:24;1.67;;;1.57;;
3149;SDS011;32503;47.748;8.960;2022-07-12T14:05:51;1.77;;;1.67;;
3149;SDS011;32503;47.748;8.960;2022-07-12T14:08:18;1.80;;;1.70;;
3149;SDS011;32503;47.748;8.960;2022-07-12T14:10:46;2.20;;;2.10;;
3149;SDS011;32503;47.748;8.960;2022-07-12T14:13:13;1.83;;;1.73;;
3149;SDS011;32503;47.748;8.960;2022-07-12T14:15:40;5.27;;;2.03;;
3149;SDS011;32503;47.748;8.960;2022-07-12T14:18:09;2.07;;;1.97;;
3149;SDS011;32503;47.748;8.960;2022-07-12T14:20:37;2.20;;;2.10;;
3149;SDS011;32503;47.748;8.960;2022-07-12T14:23:04;1.70;;;1.60;;
3149;SDS011;32503;47.748;8.960;2022-07-12T14:25:32;2.10;;;2.00;;
3149;SDS011;32503;47.748;8.960;2022-07-12T14:27:59;1.90;;;1.80;;
3149;SDS011;32503;47.748;8.960;2022-07-12T14:30:26;1.63;;;1.53;;
3149;SDS011;32503;47.748;8.960;2022-07-12T14:32:54;1.97;;;1.87;;
3149;SDS011;32503;47.748;8.960;2022-07-12T14:35:21;1.80;;;1.70;;
3149;SDS011;32503;47.748;8.960;2022-07-12T14:37:50;2.17;;;1.97;;
3149;SDS011;32503;47.748;8.960;2022-07-12T14:40:17;2.30;;;2.20;;
3149;SDS011;32503;47.748;8.960;2022-07-12T14:42:44;1.90;;;1.80;;
3149;SDS011;32503;47.748;8.960;2022-07-12T14:45:11;4.37;;;2.07;;
3149;SDS011;32503;47.748;8.960;2022-07-12T14:47:38;2.27;;;2.17;;
3149;SDS011;32503;47.748;8.960;2022-07-12T14:50:06;2.07;;;1.97;;
3149;SDS011;32503;47.748;8.960;2022-07-12T14:52:33;2.23;;;2.13;;
3149;SDS011;32503;47.748;8.960;2022-07-12T14:55:02;1.97;;;1.87;;
3149;SDS011;32503;47.748;8.960;2022-07-12T14:57:30;2.20;;;2.10;;
3149;SDS011;32503;47.748;8.960;2022-07-12T14:59:57;1.63;;;1.53;;
3149;SDS011;32503;47.748;8.960;2022-07-12T15:02:24;1.80;;;1.70;;
3149;SDS011;32503;47.748;8.960;2022-07-12T15:04:53;2.00;;;1.90;;
3149;SDS011;32503;47.748;8.960;2022-07-12T15:07:20;2.07;;;1.97;;
3149;SDS011;32503;47.748;8.960;2022-07-12T15:09:48;1.87;;;1.77;;
3149;SDS011;32503;47.748;8.960;2022-07-12T15:12:16;1.60;;;1.50;;
3149;SDS011;32503;47.748;8.960;2022-07-12T15:14:43;2.10;;;2.00;;